sensor_id;sensor_type;location;lat;lon;timestamp;P1;durP1;ratioP1;P2;durP2;ratioP2
54454;SDS011;40364;52.270;10.546;2023-04-24T00:01:07;1.70;;;1.00;;
54454;SDS011;40364;52.270;10.546;2023-04-24T00:03:34;2.00;;;1.15;;
54454;SDS011;40364;52.270;10.546;2023-04-24T00:06:00;1.38;;;1.00;;
54454;SDS011;40364;52.270;10.546;2023-04-24T00:08:27;1.48;;;1.10;;
54454;SDS011;40364;52.270;10.546;2023-04-24T00:10:54;1.42;;;1.10;;
54454;SDS011;40364;52.270;10.546;2023-04-24T00:13:22;1.85;;;1.25;;
54454;SDS011;40364;52.270;10.546;2023-04-24T00:15:48;1.27;;;0.90;;
54454;SDS011;40364;52.270;10.546;2023-04-24T00:18:15;2.35;;;1.10;;
54454;SDS011;40364;52.270;10.546;2023-04-24T00:20:41;1.75;;;1.10;;
54454;SDS011;40364;52.270;10.546;2023-04-24T00:23:08;0.95;;;0.77;;
54454;SDS011;40364;52.270;10.546;2023-04-24T00:25:35;1.20;;;0.95;;
54454;SDS011;40364;52.270;10.546;2023-04-24T00:28:01;2.38;;;0.93;;
54454;SDS011;40364;52.270;10.546;2023-04-24T00:30:29;3.85;;;1.00;;
54454;SDS011;40364;52.270;10.546;2023-04-24T00:32:56;2.83;;;1.00;;
54454;SDS011;40364;52.270;10.546;2023-04-24T00:35:23;2.03;;;0.93;;
54454;SDS011;40364;52.270;10.546;2023-04-24T00:37:49;2.30;;;0.93;;
54454;SDS011;40364;52.270;10.546;2023-04-24T00:40:16;1.98;;;0.80;;
54454;SDS011;40364;52.270;10.546;2023-04-24T00:42:43;1.75;;;0.82;;
54454;SDS011;40364;52.270;10.546;2023-04-24T00:45:09;1.60;;;0.90;;
54454;SDS011;40364;52.270;10.546;2023-04-24T00:47:37;1.42;;;0.90;;
54454;SDS011;40364;52.270;10.546;2023-04-24T00:50:05;3.22;;;1.15;;
54454;SDS011;40364;52.270;10.546;2023-04-24T00:52:32;2.90;;;0.80;;
54454;SDS011;40364;52.270;10.546;2023-04-24T00:54:59;1.38;;;1.08;;
54454;SDS011;40364;52.270;10.546;2023-04-24T00:57:25;1.67;;;1.08;;
54454;SDS011;40364;52.270;10.546;2023-04-24T00:59:52;2.17;;;0.95;;
54454;SDS011;40364;52.270;10.546;2023-04-24T01:02:19;1.67;;;0.82;;
54454;SDS011;40364;52.270;10.546;2023-04-24T01:04:47;1.80;;;0.95;;
54454;SDS011;40364;52.270;10.546;2023-04-24T01:07:14;1.63;;;0.80;;
54454;SDS011;40364;52.270;10.546;2023-04-24T01:09:41;1.67;;;0.90;;
54454;SDS011;40364;52.270;10.546;2023-04-24T01:12:08;1.27;;;0.93;;
54454;SDS011;40364;52.270;10.546;2023-04-24T01:14:34;4.03;;;1.02;;
54454;SDS011;40364;52.270;10.546;2023-04-24T01:17:01;1.35;;;0.85;;
54454;SDS011;40364;52.270;10.546;2023-04-24T01:19:27;1.17;;;0.73;;
54454;SDS011;40364;52.270;10.546;2023-04-24T01:21:56;2.67;;;1.00;;
54454;SDS011;40364;52.270;10.546;2023-04-24T01:24:25;2.47;;;1.10;;
54454;SDS011;40364;52.270;10.546;2023-04-24T01:26:52;2.42;;;0.82;;
54454;SDS011;40364;52.270;10.546;2023-04-24T01:29:18;1.02;;;0.80;;
54454;SDS011;40364;52.270;10.546;2023-04-24T01:31:45;2.78;;;1.08;;
54454;SDS011;40364;52.270;10.546;2023-04-24T01:34:11;2.58;;;1.10;;
54454;SDS011;40364;52.270;10.546;2023-04-24T01:36:38;2.83;;;1.00;;
54454;SDS011;40364;52.270;10.546;2023-04-24T01:39:05;1.88;;;1.05;;
54454;SDS011;40364;52.270;10.546;2023-04-24T01:41:33;3.38;;;1.05;;
54454;SDS011;40364;52.270;10.546;2023-04-24T01:43:59;1.30;;;0.80;;
54454;SDS011;40364;52.270;10.546;2023-04-24T01:46:26;4.35;;;1.00;;
54454;SDS011;40364;52.270;10.546;2023-04-24T01:48:53;1.27;;;0.75;;
54454;SDS011;40364;52.270;10.546;2023-04-24T01:51:20;1.20;;;0.75;;
54454;SDS011;40364;52.270;10.546;2023-04-24T01:53:46;0.93;;;0.80;;
54454;SDS011;40364;52.270;10.546;2023-04-24T01:56:13;1.17;;;0.85;;
54454;SDS011;40364;52.270;10.546;2023-04-24T01:58:41;2.25;;;1.10;;
54454;SDS011;40364;52.270;10.546;2023-04-24T02:01:07;3.20;;;1.10;;
54454;SDS011;40364;52.270;10.546;2023-04-24T02:03:34;0.75;;;0.75;;
54454;SDS011;40364;52.270;10.546;2023-04-24T02:06:00;1.83;;;0.90;;
54454;SDS011;40364;52.270;10.546;2023-04-24T02:08:27;1.30;;;1.00;;
54454;SDS011;40364;52.270;10.546;2023-04-24T02:10:53;4.72;;;1.05;;
54454;SDS011;40364;52.270;10.546;2023-04-24T02:13:20;1.35;;;1.00;;
54454;SDS011;40364;52.270;10.546;2023-04-24T02:15:47;1.67;;;0.95;;
54454;SDS011;40364;52.270;10.546;2023-04-24T02:18:14;4.38;;;1.23;;
54454;SDS011;40364;52.270;10.546;2023-04-24T02:20:40;1.92;;;0.82;;
54454;SDS011;40364;52.270;10.546;2023-04-24T02:23:07;3.67;;;1.10;;
54454;SDS011;40364;52.270;10.546;2023-04-24T02:25:33;2.30;;;1.15;;
54454;SDS011;40364;52.270;10.546;2023-04-24T02:27:59;1.38;;;0.93;;
54454;SDS011;40364;52.270;10.546;2023-04-24T02:30:26;3.45;;;1.70;;
54454;SDS011;40364;52.270;10.546;2023-04-24T02:32:54;5.65;;;1.20;;
54454;SDS011;40364;52.270;10.546;2023-04-24T02:35:20;4.30;;;1.30;;
54454;SDS011;40364;52.270;10.546;2023-04-24T02:37:47;3.60;;;1.23;;
54454;SDS011;40364;52.270;10.546;2023-04-24T02:40:13;3.88;;;1.13;;
54454;SDS011;40364;52.270;10.546;2023-04-24T02:42:40;3.40;;;1.20;;
54454;SDS011;40364;52.270;10.546;2023-04-24T02:45:07;1.45;;;1.15;;
54454;SDS011;40364;52.270;10.546;2023-04-24T02:47:33;1.92;;;1.10;;
54454;SDS011;40364;52.270;10.546;2023-04-24T02:50:01;1.85;;;1.17;;
54454;SDS011;40364;52.270;10.546;2023-04-24T02:52:28;1.83;;;1.02;;
54454;SDS011;40364;52.270;10.546;2023-04-24T02:54:54;5.20;;;1.63;;
54454;SDS011;40364;52.270;10.546;2023-04-24T02:57:21;4.70;;;1.33;;
54454;SDS011;40364;52.270;10.546;2023-04-24T02:59:47;3.67;;;1.33;;
54454;SDS011;40364;52.270;10.546;2023-04-24T03:02:13;3.92;;;2.00;;
54454;SDS011;40364;52.270;10.546;2023-04-24T03:04:40;6.43;;;2.22;;
54454;SDS011;40364;52.270;10.546;2023-04-24T03:07:09;2.40;;;1.52;;
54454;SDS011;40364;52.270;10.546;2023-04-24T03:09:35;3.55;;;1.95;;
54454;SDS011;40364;52.270;10.546;2023-04-24T03:12:02;6.07;;;1.63;;
54454;SDS011;40364;52.270;10.546;2023-04-24T03:14:28;4.70;;;1.70;;
54454;SDS011;40364;52.270;10.546;2023-04-24T03:16:56;4.95;;;1.55;;
54454;SDS011;40364;52.270;10.546;2023-04-24T03:19:22;2.03;;;1.40;;
54454;SDS011;40364;52.270;10.546;2023-04-24T03:21:49;1.35;;;1.08;;
54454;SDS011;40364;52.270;10.546;2023-04-24T03:24:17;2.03;;;1.23;;
54454;SDS011;40364;52.270;10.546;2023-04-24T03:26:43;3.83;;;0.80;;
54454;SDS011;40364;52.270;10.546;2023-04-24T03:29:09;2.70;;;0.90;;
54454;SDS011;40364;52.270;10.546;2023-04-24T03:31:36;4.68;;;1.35;;
54454;SDS011;40364;52.270;10.546;2023-04-24T03:34:02;1.13;;;1.02;;
54454;SDS011;40364;52.270;10.546;2023-04-24T03:36:29;2.25;;;1.30;;
54454;SDS011;40364;52.270;10.546;2023-04-24T03:38:55;5.32;;;1.05;;
54454;SDS011;40364;52.270;10.546;2023-04-24T03:41:23;4.32;;;1.05;;
54454;SDS011;40364;52.270;10.546;2023-04-24T03:43:49;0.70;;;0.70;;
54454;SDS011;40364;52.270;10.546;2023-04-24T03:46:16;1.02;;;0.73;;
54454;SDS011;40364;52.270;10.546;2023-04-24T03:48:42;2.65;;;1.05;;
54454;SDS011;40364;52.270;10.546;2023-04-24T03:51:09;2.92;;;0.80;;
54454;SDS011;40364;52.270;10.546;2023-04-24T03:53:35;1.83;;;1.02;;
54454;SDS011;40364;52.270;10.546;2023-04-24T03:56:01;1.98;;;0.80;;
54454;SDS011;40364;52.270;10.546;2023-04-24T03:58:29;2.83;;;1.00;;
54454;SDS011;40364;52.270;10.546;2023-04-24T04:00:55;2.03;;;0.90;;
54454;SDS011;40364;52.270;10.546;2023-04-24T04:03:23;1.23;;;0.82;;
54454;SDS011;40364;52.270;10.546;2023-04-24T04:05:50;1.88;;;0.88;;
54454;SDS011;40364;52.270;10.546;2023-04-24T04:08:17;2.92;;;0.90;;
54454;SDS011;40364;52.270;10.546;2023-04-24T04:10:43;2.47;;;1.08;;
54454;SDS011;40364;52.270;10.546;2023-04-24T04:13:09;1.63;;;0.68;;
54454;SDS011;40364;52.270;10.546;2023-04-24T04:15:37;1.83;;;0.85;;
54454;SDS011;40364;52.270;10.546;2023-04-24T04:18:04;2.95;;;1.08;;
54454;SDS011;40364;52.270;10.546;2023-04-24T04:20:30;3.40;;;1.50;;
54454;SDS011;40364;52.270;10.546;2023-04-24T04:22:56;5.07;;;1.30;;
54454;SDS011;40364;52.270;10.546;2023-04-24T04:25:23;4.00;;;1.20;;
54454;SDS011;40364;52.270;10.546;2023-04-24T04:27:49;3.22;;;1.48;;
54454;SDS011;40364;52.270;10.546;2023-04-24T04:30:16;4.05;;;1.15;;
54454;SDS011;40364;52.270;10.546;2023-04-24T04:32:44;4.45;;;1.08;;
54454;SDS011;40364;52.270;10.546;2023-04-24T04:35:11;1.50;;;1.10;;
54454;SDS011;40364;52.270;10.546;2023-04-24T04:37:37;3.47;;;1.50;;
54454;SDS011;40364;52.270;10.546;2023-04-24T04:40:05;2.25;;;1.20;;
54454;SDS011;40364;52.270;10.546;2023-04-24T04:42:32;5.03;;;2.35;;
54454;SDS011;40364;52.270;10.546;2023-04-24T04:44:59;4.28;;;1.23;;
54454;SDS011;40364;52.270;10.546;2023-04-24T04:47:26;6.32;;;1.15;;
54454;SDS011;40364;52.270;10.546;2023-04-24T04:49:54;3.42;;;1.30;;
54454;SDS011;40364;52.270;10.546;2023-04-24T04:52:21;7.05;;;1.30;;
54454;SDS011;40364;52.270;10.546;2023-04-24T04:54:50;3.58;;;1.48;;
54454;SDS011;40364;52.270;10.546;2023-04-24T04:57:16;9.98;;;1.77;;
54454;SDS011;40364;52.270;10.546;2023-04-24T04:59:43;4.43;;;1.38;;
54454;SDS011;40364;52.270;10.546;2023-04-24T05:02:09;2.67;;;1.25;;
54454;SDS011;40364;52.270;10.546;2023-04-24T05:04:36;5.18;;;1.90;;
54454;SDS011;40364;52.270;10.546;2023-04-24T05:07:04;5.13;;;2.03;;
54454;SDS011;40364;52.270;10.546;2023-04-24T05:09:31;3.80;;;1.58;;
54454;SDS011;40364;52.270;10.546;2023-04-24T05:11:57;4.97;;;1.10;;
54454;SDS011;40364;52.270;10.546;2023-04-24T05:14:24;1.98;;;1.23;;
54454;SDS011;40364;52.270;10.546;2023-04-24T05:16:50;3.92;;;1.00;;
54454;SDS011;40364;52.270;10.546;2023-04-24T05:19:16;2.65;;;0.90;;
54454;SDS011;40364;52.270;10.546;2023-04-24T05:21:43;2.05;;;0.77;;
54454;SDS011;40364;52.270;10.546;2023-04-24T05:24:11;2.35;;;0.70;;
54454;SDS011;40364;52.270;10.546;2023-04-24T05:26:37;1.98;;;0.68;;
54454;SDS011;40364;52.270;10.546;2023-04-24T05:29:03;1.40;;;0.80;;
54454;SDS011;40364;52.270;10.546;2023-04-24T05:31:30;1.35;;;0.80;;
54454;SDS011;40364;52.270;10.546;2023-04-24T05:33:56;2.95;;;0.85;;
54454;SDS011;40364;52.270;10.546;2023-04-24T05:36:23;3.05;;;0.75;;
54454;SDS011;40364;52.270;10.546;2023-04-24T05:38:49;2.70;;;0.77;;
54454;SDS011;40364;52.270;10.546;2023-04-24T05:41:17;1.83;;;0.80;;
54454;SDS011;40364;52.270;10.546;2023-04-24T05:43:43;1.35;;;1.02;;
54454;SDS011;40364;52.270;10.546;2023-04-24T05:46:11;1.80;;;0.95;;
54454;SDS011;40364;52.270;10.546;2023-04-24T05:48:37;2.55;;;0.70;;
54454;SDS011;40364;52.270;10.546;2023-04-24T05:51:04;1.50;;;0.80;;
54454;SDS011;40364;52.270;10.546;2023-04-24T05:53:30;0.77;;;0.70;;
54454;SDS011;40364;52.270;10.546;2023-04-24T05:55:56;4.57;;;0.70;;
54454;SDS011;40364;52.270;10.546;2023-04-24T05:58:24;1.98;;;0.80;;
54454;SDS011;40364;52.270;10.546;2023-04-24T06:00:51;2.63;;;0.77;;
54454;SDS011;40364;52.270;10.546;2023-04-24T06:03:17;1.10;;;0.68;;
54454;SDS011;40364;52.270;10.546;2023-04-24T06:05:43;2.05;;;0.80;;
54454;SDS011;40364;52.270;10.546;2023-04-24T06:08:10;1.33;;;0.85;;
54454;SDS011;40364;52.270;10.546;2023-04-24T06:10:36;2.45;;;1.08;;
54454;SDS011;40364;52.270;10.546;2023-04-24T06:13:03;4.57;;;0.85;;
54454;SDS011;40364;52.270;10.546;2023-04-24T06:15:30;4.53;;;1.00;;
54454;SDS011;40364;52.270;10.546;2023-04-24T06:17:57;4.05;;;0.80;;
54454;SDS011;40364;52.270;10.546;2023-04-24T06:20:23;6.65;;;1.00;;
54454;SDS011;40364;52.270;10.546;2023-04-24T06:22:50;4.97;;;1.10;;
54454;SDS011;40364;52.270;10.546;2023-04-24T06:25:16;2.67;;;0.90;;
54454;SDS011;40364;52.270;10.546;2023-04-24T06:27:43;7.60;;;1.17;;
54454;SDS011;40364;52.270;10.546;2023-04-24T06:30:09;6.88;;;0.82;;
54454;SDS011;40364;52.270;10.546;2023-04-24T06:32:37;2.88;;;0.98;;
54454;SDS011;40364;52.270;10.546;2023-04-24T06:35:04;2.42;;;1.30;;
54454;SDS011;40364;52.270;10.546;2023-04-24T06:37:32;2.22;;;1.40;;
54454;SDS011;40364;52.270;10.546;2023-04-24T06:39:58;2.47;;;1.10;;
54454;SDS011;40364;52.270;10.546;2023-04-24T06:42:25;1.02;;;0.90;;
54454;SDS011;40364;52.270;10.546;2023-04-24T06:44:51;2.00;;;1.25;;
54454;SDS011;40364;52.270;10.546;2023-04-24T06:47:18;1.55;;;0.90;;
54454;SDS011;40364;52.270;10.546;2023-04-24T06:49:46;4.55;;;1.10;;
54454;SDS011;40364;52.270;10.546;2023-04-24T06:52:12;2.85;;;1.00;;
54454;SDS011;40364;52.270;10.546;2023-04-24T06:54:41;2.10;;;1.38;;
54454;SDS011;40364;52.270;10.546;2023-04-24T06:57:08;4.03;;;1.40;;
54454;SDS011;40364;52.270;10.546;2023-04-24T06:59:35;2.80;;;1.38;;
54454;SDS011;40364;52.270;10.546;2023-04-24T07:02:01;2.67;;;1.73;;
54454;SDS011;40364;52.270;10.546;2023-04-24T07:04:28;3.10;;;1.48;;
54454;SDS011;40364;52.270;10.546;2023-04-24T07:06:56;2.72;;;1.70;;
54454;SDS011;40364;52.270;10.546;2023-04-24T07:09:23;3.58;;;1.88;;
54454;SDS011;40364;52.270;10.546;2023-04-24T07:11:50;7.18;;;2.10;;
54454;SDS011;40364;52.270;10.546;2023-04-24T07:14:16;3.90;;;2.05;;
54454;SDS011;40364;52.270;10.546;2023-04-24T07:16:43;4.50;;;1.98;;
54454;SDS011;40364;52.270;10.546;2023-04-24T07:19:10;5.22;;;2.15;;
54454;SDS011;40364;52.270;10.546;2023-04-24T07:21:36;2.80;;;1.55;;
54454;SDS011;40364;52.270;10.546;2023-04-24T07:24:04;4.55;;;1.60;;
54454;SDS011;40364;52.270;10.546;2023-04-24T07:26:34;3.40;;;1.20;;
54454;SDS011;40364;52.270;10.546;2023-04-24T07:29:00;1.23;;;1.02;;
54454;SDS011;40364;52.270;10.546;2023-04-24T07:31:27;1.45;;;1.02;;
54454;SDS011;40364;52.270;10.546;2023-04-24T07:33:54;1.67;;;0.85;;
54454;SDS011;40364;52.270;10.546;2023-04-24T07:36:23;1.63;;;0.90;;
54454;SDS011;40364;52.270;10.546;2023-04-24T07:38:51;1.80;;;0.90;;
54454;SDS011;40364;52.270;10.546;2023-04-24T07:41:18;1.27;;;0.77;;
54454;SDS011;40364;52.270;10.546;2023-04-24T07:43:45;1.38;;;1.05;;
54454;SDS011;40364;52.270;10.546;2023-04-24T07:46:12;1.52;;;1.00;;
54454;SDS011;40364;52.270;10.546;2023-04-24T07:48:38;3.45;;;1.30;;
54454;SDS011;40364;52.270;10.546;2023-04-24T07:51:04;1.20;;;1.10;;
54454;SDS011;40364;52.270;10.546;2023-04-24T07:53:31;3.25;;;0.90;;
54454;SDS011;40364;52.270;10.546;2023-04-24T07:55:58;2.80;;;1.10;;
54454;SDS011;40364;52.270;10.546;2023-04-24T07:58:26;2.55;;;1.17;;
54454;SDS011;40364;52.270;10.546;2023-04-24T08:00:52;2.25;;;1.40;;
54454;SDS011;40364;52.270;10.546;2023-04-24T08:03:19;3.53;;;1.40;;
54454;SDS011;40364;52.270;10.546;2023-04-24T08:05:45;2.55;;;1.83;;
54454;SDS011;40364;52.270;10.546;2023-04-24T08:08:12;4.75;;;1.67;;
54454;SDS011;40364;52.270;10.546;2023-04-24T08:10:38;1.90;;;1.58;;
54454;SDS011;40364;52.270;10.546;2023-04-24T08:13:05;3.30;;;1.50;;
54454;SDS011;40364;52.270;10.546;2023-04-24T08:15:32;2.28;;;1.70;;
54454;SDS011;40364;52.270;10.546;2023-04-24T08:17:59;3.28;;;1.48;;
54454;SDS011;40364;52.270;10.546;2023-04-24T08:20:25;3.63;;;1.45;;
54454;SDS011;40364;52.270;10.546;2023-04-24T08:22:52;1.60;;;1.17;;
54454;SDS011;40364;52.270;10.546;2023-04-24T08:25:19;2.05;;;1.10;;
54454;SDS011;40364;52.270;10.546;2023-04-24T08:27:48;1.75;;;1.30;;
54454;SDS011;40364;52.270;10.546;2023-04-24T08:30:14;1.50;;;1.20;;
54454;SDS011;40364;52.270;10.546;2023-04-24T08:32:42;1.80;;;1.58;;
54454;SDS011;40364;52.270;10.546;2023-04-24T08:35:08;1.83;;;1.40;;
54454;SDS011;40364;52.270;10.546;2023-04-24T08:37:35;1.98;;;1.45;;
54454;SDS011;40364;52.270;10.546;2023-04-24T08:40:01;5.10;;;2.05;;
54454;SDS011;40364;52.270;10.546;2023-04-24T08:42:28;3.65;;;2.10;;
54454;SDS011;40364;52.270;10.546;2023-04-24T08:44:58;2.92;;;2.15;;
54454;SDS011;40364;52.270;10.546;2023-04-24T08:47:24;2.97;;;1.73;;
54454;SDS011;40364;52.270;10.546;2023-04-24T08:49:54;3.33;;;2.08;;
54454;SDS011;40364;52.270;10.546;2023-04-24T08:52:21;3.50;;;1.90;;
54454;SDS011;40364;52.270;10.546;2023-04-24T08:54:47;1.95;;;1.50;;
54454;SDS011;40364;52.270;10.546;2023-04-24T08:57:14;3.53;;;1.70;;
54454;SDS011;40364;52.270;10.546;2023-04-24T08:59:41;3.92;;;2.00;;
54454;SDS011;40364;52.270;10.546;2023-04-24T09:02:09;4.60;;;2.22;;
54454;SDS011;40364;52.270;10.546;2023-04-24T09:04:36;4.30;;;2.00;;
54454;SDS011;40364;52.270;10.546;2023-04-24T09:07:04;2.50;;;2.13;;
54454;SDS011;40364;52.270;10.546;2023-04-24T09:09:32;2.25;;;2.00;;
54454;SDS011;40364;52.270;10.546;2023-04-24T09:11:59;2.97;;;2.00;;
54454;SDS011;40364;52.270;10.546;2023-04-24T09:14:27;2.55;;;2.13;;
54454;SDS011;40364;52.270;10.546;2023-04-24T09:16:56;3.42;;;1.75;;
54454;SDS011;40364;52.270;10.546;2023-04-24T09:19:22;2.72;;;1.88;;
54454;SDS011;40364;52.270;10.546;2023-04-24T09:21:49;2.20;;;1.52;;
54454;SDS011;40364;52.270;10.546;2023-04-24T09:24:17;12.75;;;2.72;;
54454;SDS011;40364;52.270;10.546;2023-04-24T09:26:45;3.13;;;2.15;;
54454;SDS011;40364;52.270;10.546;2023-04-24T09:29:14;4.88;;;1.85;;
54454;SDS011;40364;52.270;10.546;2023-04-24T09:31:40;4.28;;;2.10;;
54454;SDS011;40364;52.270;10.546;2023-04-24T09:34:07;3.17;;;2.30;;
54454;SDS011;40364;52.270;10.546;2023-04-24T09:36:34;3.00;;;2.00;;
54454;SDS011;40364;52.270;10.546;2023-04-24T09:39:02;2.42;;;1.90;;
54454;SDS011;40364;52.270;10.546;2023-04-24T09:41:32;4.40;;;1.98;;
54454;SDS011;40364;52.270;10.546;2023-04-24T09:44:01;3.28;;;1.90;;
54454;SDS011;40364;52.270;10.546;2023-04-24T09:46:36;3.47;;;2.00;;
54454;SDS011;40364;52.270;10.546;2023-04-24T09:49:07;4.63;;;1.55;;
54454;SDS011;40364;52.270;10.546;2023-04-24T09:51:34;4.35;;;2.17;;
54454;SDS011;40364;52.270;10.546;2023-04-24T09:54:02;3.20;;;2.00;;
54454;SDS011;40364;52.270;10.546;2023-04-24T09:56:29;3.22;;;2.20;;
54454;SDS011;40364;52.270;10.546;2023-04-24T09:59:05;2.25;;;1.75;;
54454;SDS011;40364;52.270;10.546;2023-04-24T10:01:32;3.80;;;1.83;;
54454;SDS011;40364;52.270;10.546;2023-04-24T10:03:58;3.47;;;1.83;;
54454;SDS011;40364;52.270;10.546;2023-04-24T10:06:29;3.55;;;1.60;;
54454;SDS011;40364;52.270;10.546;2023-04-24T10:08:56;3.15;;;1.67;;
54454;SDS011;40364;52.270;10.546;2023-04-24T10:11:23;4.35;;;1.95;;
54454;SDS011;40364;52.270;10.546;2023-04-24T10:13:50;6.25;;;2.08;;
54454;SDS011;40364;52.270;10.546;2023-04-24T10:16:18;3.92;;;2.03;;
54454;SDS011;40364;52.270;10.546;2023-04-24T10:18:45;2.67;;;1.75;;
54454;SDS011;40364;52.270;10.546;2023-04-24T10:21:11;1.70;;;1.60;;
54454;SDS011;40364;52.270;10.546;2023-04-24T10:23:38;5.18;;;1.77;;
54454;SDS011;40364;52.270;10.546;2023-04-24T10:26:05;2.65;;;1.88;;
54454;SDS011;40364;52.270;10.546;2023-04-24T10:28:32;2.47;;;2.10;;
54454;SDS011;40364;52.270;10.546;2023-04-24T10:31:00;3.35;;;1.98;;
54454;SDS011;40364;52.270;10.546;2023-04-24T10:33:27;4.40;;;1.85;;
54454;SDS011;40364;52.270;10.546;2023-04-24T10:35:55;4.00;;;1.88;;
54454;SDS011;40364;52.270;10.546;2023-04-24T10:38:24;2.80;;;2.00;;
54454;SDS011;40364;52.270;10.546;2023-04-24T10:40:51;2.88;;;2.00;;
54454;SDS011;40364;52.270;10.546;2023-04-24T10:43:23;3.83;;;2.17;;
54454;SDS011;40364;52.270;10.546;2023-04-24T10:48:42;2.90;;;2.28;;
54454;SDS011;40364;52.270;10.546;2023-04-24T10:51:11;3.30;;;2.20;;
54454;SDS011;40364;52.270;10.546;2023-04-24T10:53:39;3.17;;;2.28;;
54454;SDS011;40364;52.270;10.546;2023-04-24T10:56:06;2.15;;;1.70;;
54454;SDS011;40364;52.270;10.546;2023-04-24T10:58:36;1.83;;;1.33;;
54454;SDS011;40364;52.270;10.546;2023-04-24T11:01:03;3.00;;;1.90;;
54454;SDS011;40364;52.270;10.546;2023-04-24T11:03:30;3.13;;;1.52;;
54454;SDS011;40364;52.270;10.546;2023-04-24T11:06:00;6.30;;;1.60;;
54454;SDS011;40364;52.270;10.546;2023-04-24T11:08:28;1.95;;;1.42;;
54454;SDS011;40364;52.270;10.546;2023-04-24T11:11:02;4.88;;;1.80;;
54454;SDS011;40364;52.270;10.546;2023-04-24T11:14:00;3.08;;;1.33;;
54454;SDS011;40364;52.270;10.546;2023-04-24T11:16:27;1.40;;;1.25;;
54454;SDS011;40364;52.270;10.546;2023-04-24T11:18:59;1.60;;;1.30;;
54454;SDS011;40364;52.270;10.546;2023-04-24T11:21:28;1.75;;;1.42;;
54454;SDS011;40364;52.270;10.546;2023-04-24T11:23:57;1.98;;;1.20;;
54454;SDS011;40364;52.270;10.546;2023-04-24T11:26:23;3.22;;;1.40;;
54454;SDS011;40364;52.270;10.546;2023-04-24T11:28:55;1.70;;;1.25;;
54454;SDS011;40364;52.270;10.546;2023-04-24T11:31:35;1.88;;;1.30;;
54454;SDS011;40364;52.270;10.546;2023-04-24T11:34:08;2.58;;;1.23;;
54454;SDS011;40364;52.270;10.546;2023-04-24T11:36:36;2.08;;;1.35;;
54454;SDS011;40364;52.270;10.546;2023-04-24T11:39:03;2.20;;;1.38;;
54454;SDS011;40364;52.270;10.546;2023-04-24T11:41:29;3.85;;;1.30;;
54454;SDS011;40364;52.270;10.546;2023-04-24T11:43:56;2.50;;;1.52;;
54454;SDS011;40364;52.270;10.546;2023-04-24T11:46:26;1.67;;;1.20;;
54454;SDS011;40364;52.270;10.546;2023-04-24T11:48:52;2.65;;;1.20;;
54454;SDS011;40364;52.270;10.546;2023-04-24T11:51:19;1.50;;;1.20;;
54454;SDS011;40364;52.270;10.546;2023-04-24T11:53:47;1.25;;;1.10;;
54454;SDS011;40364;52.270;10.546;2023-04-24T11:56:16;2.58;;;1.23;;
54454;SDS011;40364;52.270;10.546;2023-04-24T11:58:44;2.08;;;1.30;;
54454;SDS011;40364;52.270;10.546;2023-04-24T12:01:10;3.20;;;1.30;;
54454;SDS011;40364;52.270;10.546;2023-04-24T12:03:37;3.03;;;1.45;;
54454;SDS011;40364;52.270;10.546;2023-04-24T12:06:04;1.77;;;0.95;;
54454;SDS011;40364;52.270;10.546;2023-04-24T12:08:31;1.80;;;1.23;;
54454;SDS011;40364;52.270;10.546;2023-04-24T12:10:58;1.33;;;1.05;;
54454;SDS011;40364;52.270;10.546;2023-04-24T12:13:26;1.45;;;1.10;;
54454;SDS011;40364;52.270;10.546;2023-04-24T12:15:52;3.15;;;1.65;;
54454;SDS011;40364;52.270;10.546;2023-04-24T12:18:22;2.40;;;1.33;;
54454;SDS011;40364;52.270;10.546;2023-04-24T12:20:48;1.90;;;1.13;;
54454;SDS011;40364;52.270;10.546;2023-04-24T12:23:15;1.92;;;1.42;;
54454;SDS011;40364;52.270;10.546;2023-04-24T12:25:42;1.83;;;1.25;;
54454;SDS011;40364;52.270;10.546;2023-04-24T12:28:12;2.35;;;1.52;;
54454;SDS011;40364;52.270;10.546;2023-04-24T12:30:39;3.58;;;1.70;;
54454;SDS011;40364;52.270;10.546;2023-04-24T12:33:06;1.77;;;1.38;;
54454;SDS011;40364;52.270;10.546;2023-04-24T12:35:32;2.20;;;1.48;;
54454;SDS011;40364;52.270;10.546;2023-04-24T12:38:05;4.70;;;1.60;;
54454;SDS011;40364;52.270;10.546;2023-04-24T12:40:31;2.50;;;1.50;;
54454;SDS011;40364;52.270;10.546;2023-04-24T12:42:58;2.45;;;1.63;;
54454;SDS011;40364;52.270;10.546;2023-04-24T12:45:25;2.20;;;1.48;;
54454;SDS011;40364;52.270;10.546;2023-04-24T12:47:53;2.70;;;1.30;;
54454;SDS011;40364;52.270;10.546;2023-04-24T12:50:19;1.40;;;1.23;;
54454;SDS011;40364;52.270;10.546;2023-04-24T12:52:46;1.70;;;1.23;;
54454;SDS011;40364;52.270;10.546;2023-04-24T12:55:12;1.50;;;1.10;;
54454;SDS011;40364;52.270;10.546;2023-04-24T12:57:39;1.05;;;0.90;;
54454;SDS011;40364;52.270;10.546;2023-04-24T13:00:06;4.75;;;1.95;;
54454;SDS011;40364;52.270;10.546;2023-04-24T13:02:34;0.80;;;0.80;;
54454;SDS011;40364;52.270;10.546;2023-04-24T13:05:01;1.50;;;0.68;;
54454;SDS011;40364;52.270;10.546;2023-04-24T13:07:28;1.17;;;0.60;;
54454;SDS011;40364;52.270;10.546;2023-04-24T13:09:54;3.47;;;0.50;;
54454;SDS011;40364;52.270;10.546;2023-04-24T13:12:21;0.63;;;0.32;;
54454;SDS011;40364;52.270;10.546;2023-04-24T13:14:48;3.78;;;0.43;;
54454;SDS011;40364;52.270;10.546;2023-04-24T13:17:15;1.02;;;0.35;;
54454;SDS011;40364;52.270;10.546;2023-04-24T13:19:43;0.40;;;0.40;;
54454;SDS011;40364;52.270;10.546;2023-04-24T13:22:10;0.45;;;0.45;;
54454;SDS011;40364;52.270;10.546;2023-04-24T13:24:37;0.47;;;0.47;;
54454;SDS011;40364;52.270;10.546;2023-04-24T13:27:04;0.50;;;0.50;;
54454;SDS011;40364;52.270;10.546;2023-04-24T13:29:31;0.63;;;0.60;;
54454;SDS011;40364;52.270;10.546;2023-04-24T13:31:57;1.35;;;0.80;;
54454;SDS011;40364;52.270;10.546;2023-04-24T13:34:24;1.15;;;0.75;;
54454;SDS011;40364;52.270;10.546;2023-04-24T13:36:52;0.70;;;0.60;;
54454;SDS011;40364;52.270;10.546;2023-04-24T13:39:19;0.93;;;0.70;;
54454;SDS011;40364;52.270;10.546;2023-04-24T13:41:46;0.63;;;0.50;;
54454;SDS011;40364;52.270;10.546;2023-04-24T13:44:13;0.50;;;0.50;;
54454;SDS011;40364;52.270;10.546;2023-04-24T13:46:39;1.33;;;0.80;;
54454;SDS011;40364;52.270;10.546;2023-04-24T13:49:06;0.75;;;0.60;;
54454;SDS011;40364;52.270;10.546;2023-04-24T13:51:33;0.80;;;0.80;;
54454;SDS011;40364;52.270;10.546;2023-04-24T13:54:00;0.70;;;0.70;;
54454;SDS011;40364;52.270;10.546;2023-04-24T13:56:27;1.08;;;0.90;;
54454;SDS011;40364;52.270;10.546;2023-04-24T13:58:53;1.80;;;0.88;;
54454;SDS011;40364;52.270;10.546;2023-04-24T14:01:20;2.83;;;0.95;;
54454;SDS011;40364;52.270;10.546;2023-04-24T14:03:49;1.00;;;0.90;;
54454;SDS011;40364;52.270;10.546;2023-04-24T14:06:15;4.20;;;0.93;;
54454;SDS011;40364;52.270;10.546;2023-04-24T14:08:41;1.50;;;1.20;;
54454;SDS011;40364;52.270;10.546;2023-04-24T14:11:09;1.80;;;1.10;;
54454;SDS011;40364;52.270;10.546;2023-04-24T14:13:36;2.90;;;1.10;;
54454;SDS011;40364;52.270;10.546;2023-04-24T14:16:03;3.05;;;1.15;;
54454;SDS011;40364;52.270;10.546;2023-04-24T14:18:29;4.28;;;1.10;;
54454;SDS011;40364;52.270;10.546;2023-04-24T14:20:56;1.60;;;1.02;;
54454;SDS011;40364;52.270;10.546;2023-04-24T14:23:22;1.10;;;1.00;;
54454;SDS011;40364;52.270;10.546;2023-04-24T14:25:49;2.25;;;0.90;;
54454;SDS011;40364;52.270;10.546;2023-04-24T14:28:18;1.20;;;0.88;;
54454;SDS011;40364;52.270;10.546;2023-04-24T14:30:45;4.28;;;0.70;;
54454;SDS011;40364;52.270;10.546;2023-04-24T14:33:11;1.85;;;0.60;;
54454;SDS011;40364;52.270;10.546;2023-04-24T14:35:38;0.88;;;0.70;;